createdAt,value
2023-02-21T00:00:45.475Z,64.58
2023-02-21T00:03:26.112Z,64.70
2023-02-21T00:06:06.961Z,64.90
2023-02-21T00:08:47.650Z,64.81
2023-02-21T00:11:29.299Z,64.83
2023-02-21T00:14:10.022Z,65.05
2023-02-21T00:16:50.796Z,64.89
2023-02-21T00:19:31.439Z,65.02
2023-02-21T00:22:13.754Z,65.04
2023-02-21T00:24:54.342Z,65.15
2023-02-21T00:27:35.952Z,64.98
2023-02-21T00:30:16.663Z,65.39
2023-02-21T00:32:57.467Z,65.35
2023-02-21T00:35:38.277Z,65.48
2023-02-21T00:38:19.405Z,65.67
2023-02-21T00:41:00.126Z,65.47
2023-02-21T00:43:45.366Z,65.57
2023-02-21T00:46:26.028Z,65.64
2023-02-21T00:49:06.701Z,65.49
2023-02-21T00:51:47.326Z,65.49
2023-02-21T00:54:29.034Z,65.60
2023-02-21T00:57:09.734Z,65.82
2023-02-21T00:59:49.470Z,65.59
2023-02-21T01:02:30.240Z,65.75
2023-02-21T01:05:10.901Z,65.78
2023-02-21T01:07:51.754Z,65.71
2023-02-21T01:10:32.897Z,65.50
2023-02-21T01:13:13.483Z,65.68
2023-02-21T01:15:55.170Z,65.40
2023-02-21T01:18:35.876Z,65.61
2023-02-21T01:21:16.772Z,65.71
2023-02-21T01:23:57.542Z,65.98
2023-02-21T01:26:38.302Z,66.14
2023-02-21T01:29:19.146Z,66.05
2023-02-21T01:31:59.769Z,66.19
2023-02-21T01:34:39.404Z,66.35
2023-02-21T01:37:21.316Z,66.45
2023-02-21T01:40:01.946Z,66.43
2023-02-21T01:42:42.617Z,66.66
2023-02-21T01:45:37.096Z,66.61
2023-02-21T01:48:18.341Z,66.68
2023-02-21T01:50:59.066Z,66.54
2023-02-21T01:53:40.347Z,66.65
2023-02-21T01:56:21.604Z,66.55
2023-02-21T01:59:05.737Z,66.91
2023-02-21T02:02:13.354Z,66.39
2023-02-21T02:04:56.345Z,66.76
2023-02-21T02:07:37.045Z,66.81
2023-02-21T02:10:19.714Z,66.54
2023-02-21T02:13:14.318Z,66.63
2023-02-21T02:15:55.645Z,66.90
2023-02-21T02:18:36.399Z,66.95
2023-02-21T02:21:25.740Z,66.83
2023-02-21T02:23:52.375Z,67.07
2023-02-21T02:26:34.996Z,67.15
2023-02-21T02:29:29.253Z,67.24
2023-02-21T02:32:28.376Z,67.22
2023-02-21T02:35:11.814Z,67.51
2023-02-21T02:37:44.454Z,67.36
2023-02-21T02:40:43.175Z,67.35
2023-02-21T02:43:13.364Z,67.56
2023-02-21T02:45:48.878Z,67.56
2023-02-21T02:48:22.199Z,67.68
2023-02-21T02:50:51.208Z,67.90
2023-02-21T02:53:25.505Z,68.01
2023-02-21T02:55:58.500Z,67.90
2023-02-21T02:58:32.827Z,68.07
2023-02-21T03:01:14.755Z,68.52
2023-02-21T03:04:11.190Z,68.51
2023-02-21T03:06:58.173Z,68.97
2023-02-21T03:09:45.578Z,69.58
2023-02-21T03:12:46.514Z,69.96
2023-02-21T03:15:21.262Z,70.49
2023-02-21T03:18:14.009Z,70.49
2023-02-21T03:20:42.716Z,71.00
2023-02-21T03:23:13.301Z,71.23
2023-02-21T03:25:41.195Z,71.56
2023-02-21T03:28:08.813Z,71.67
2023-02-21T03:30:36.118Z,71.80
2023-02-21T03:33:03.008Z,71.74
2023-02-21T03:35:30.589Z,72.18
2023-02-21T03:37:58.652Z,72.24
2023-02-21T03:40:30.973Z,72.65
2023-02-21T03:42:59.735Z,73.16
2023-02-21T03:45:26.439Z,73.49
2023-02-21T03:47:53.309Z,74.16
2023-02-21T03:50:19.968Z,74.40
2023-02-21T03:52:46.650Z,74.55
2023-02-21T03:55:13.770Z,75.03
2023-02-21T03:57:40.673Z,75.18
2023-02-21T04:00:08.103Z,75.31
2023-02-21T04:02:34.786Z,75.82
2023-02-21T04:05:01.586Z,76.05
2023-02-21T04:07:28.437Z,76.25
2023-02-21T04:09:55.464Z,76.37
2023-02-21T04:12:22.240Z,76.81
2023-02-21T04:14:49.055Z,76.81
2023-02-21T04:17:17.094Z,76.83
2023-02-21T04:19:43.839Z,77.13
2023-02-21T04:22:10.552Z,77.27
2023-02-21T04:24:37.274Z,77.19
2023-02-21T04:27:04.018Z,77.60
2023-02-21T04:29:30.835Z,77.61
2023-02-21T04:31:57.953Z,77.80
2023-02-21T04:34:25.126Z,78.32
2023-02-21T04:36:51.838Z,77.94
2023-02-21T04:39:18.567Z,78.10
2023-02-21T04:41:45.259Z,78.32
2023-02-21T04:44:13.295Z,78.68
2023-02-21T04:46:40.040Z,78.90
2023-02-21T04:49:06.769Z,79.08
2023-02-21T04:51:33.556Z,79.12
2023-02-21T04:54:00.334Z,79.10
2023-02-21T04:56:28.226Z,79.17
2023-02-21T04:58:55.827Z,79.53
2023-02-21T05:01:23.303Z,79.70
2023-02-21T05:03:50.153Z,79.89
2023-02-21T05:06:21.784Z,80.25
2023-02-21T05:08:48.959Z,80.49
2023-02-21T05:11:16.399Z,80.70
2023-02-21T05:13:43.904Z,80.71
2023-02-21T05:16:11.582Z,81.09
2023-02-21T05:18:41.338Z,81.51
2023-02-21T05:21:08.202Z,81.64
2023-02-21T05:23:36.993Z,81.97
2023-02-21T05:26:05.247Z,82.00
2023-02-21T05:28:32.483Z,82.23
2023-02-21T05:31:01.152Z,82.63
2023-02-21T05:33:28.807Z,82.81
2023-02-21T05:35:55.970Z,83.11
2023-02-21T05:38:24.723Z,83.06
2023-02-21T05:40:52.113Z,83.34
2023-02-21T05:43:18.961Z,83.34
2023-02-21T05:45:46.403Z,83.48
2023-02-21T05:48:13.219Z,83.77
2023-02-21T05:50:40.012Z,83.83
2023-02-21T05:53:07.377Z,83.92
2023-02-21T05:55:34.094Z,83.93
2023-02-21T05:58:00.895Z,84.37
2023-02-21T06:00:30.187Z,84.38
2023-02-21T06:02:57.283Z,84.53
2023-02-21T06:05:24.267Z,84.48
2023-02-21T06:07:51.421Z,84.47
2023-02-21T06:10:19.589Z,84.75
2023-02-21T06:12:46.866Z,84.79
2023-02-21T06:15:13.749Z,84.76
2023-02-21T06:17:41.602Z,85.02
2023-02-21T06:20:12.737Z,85.11
2023-02-21T06:22:39.487Z,85.27
2023-02-21T06:25:06.788Z,85.33
2023-02-21T06:27:33.459Z,85.04
2023-02-21T06:30:00.284Z,85.01
2023-02-21T06:32:27.863Z,85.14
2023-02-21T06:34:54.643Z,85.27
2023-02-21T06:37:21.952Z,85.39
2023-02-21T06:39:48.701Z,85.40
2023-02-21T06:42:16.779Z,85.38
2023-02-21T06:44:45.154Z,85.42
2023-02-21T06:47:11.922Z,85.43
2023-02-21T06:49:38.594Z,85.63
2023-02-21T06:52:06.436Z,85.41
2023-02-21T06:54:33.158Z,85.31
2023-02-21T06:57:01.822Z,85.41
2023-02-21T06:59:29.619Z,85.61
2023-02-21T07:01:57.286Z,85.35
2023-02-21T07:04:24.825Z,85.37
2023-02-21T07:06:52.404Z,85.38
2023-02-21T07:09:19.184Z,85.58
2023-02-21T07:11:47.255Z,85.55
2023-02-21T07:14:14.515Z,85.49
2023-02-21T07:16:41.995Z,85.33
2023-02-21T07:19:08.824Z,85.54
2023-02-21T07:21:35.566Z,85.74
2023-02-21T07:24:02.344Z,85.53
2023-02-21T07:26:29.016Z,85.60
2023-02-21T07:28:55.798Z,85.44
2023-02-21T07:31:23.197Z,85.42
2023-02-21T07:33:50.054Z,85.53
2023-02-21T07:36:17.254Z,85.67
2023-02-21T07:38:44.253Z,85.44
2023-02-21T07:41:11.305Z,85.44
2023-02-21T07:43:39.329Z,85.14
2023-02-21T07:46:14.307Z,85.47
2023-02-21T07:48:41.050Z,85.34
2023-02-21T07:51:08.777Z,85.18
2023-02-21T07:53:35.629Z,84.99
2023-02-21T07:56:04.535Z,84.84
2023-02-21T07:58:32.706Z,84.58
2023-02-21T08:00:59.690Z,84.65
2023-02-21T08:03:26.583Z,84.47
2023-02-21T08:05:53.837Z,84.06
2023-02-21T08:08:20.494Z,84.24
2023-02-21T08:10:47.272Z,84.31
2023-02-21T08:13:14.176Z,84.22
2023-02-21T08:15:40.976Z,84.37
2023-02-21T08:18:18.948Z,84.12
2023-02-21T08:20:45.709Z,83.98
2023-02-21T08:23:12.551Z,84.07
2023-02-21T08:25:39.888Z,83.89
2023-02-21T08:28:06.590Z,83.96
2023-02-21T08:30:33.551Z,83.76
2023-02-21T08:33:00.296Z,83.60
2023-02-21T08:35:27.204Z,83.54
2023-02-21T08:37:57.044Z,83.29
2023-02-21T08:40:24.500Z,83.36
2023-02-21T08:42:53.836Z,83.00
2023-02-21T08:45:22.804Z,82.93
2023-02-21T08:47:51.657Z,82.86
2023-02-21T08:50:20.079Z,82.91
2023-02-21T08:52:48.477Z,83.04
2023-02-21T08:55:16.033Z,82.67
2023-02-21T08:57:43.166Z,82.14
2023-02-21T09:00:13.892Z,81.90
2023-02-21T09:02:40.831Z,81.70
2023-02-21T09:05:10.619Z,82.08
2023-02-21T09:07:38.246Z,82.01
2023-02-21T09:10:06.666Z,81.07
2023-02-21T09:12:38.161Z,81.20
2023-02-21T09:15:06.967Z,81.07
2023-02-21T09:17:34.413Z,80.80
2023-02-21T09:22:55.819Z,80.69
2023-02-21T09:25:25.072Z,80.77
2023-02-21T09:27:54.614Z,80.68
2023-02-21T09:30:26.438Z,81.23
2023-02-21T09:32:55.071Z,81.02
2023-02-21T09:35:23.106Z,81.19
2023-02-21T09:37:49.809Z,81.39
2023-02-21T09:40:29.816Z,81.19
2023-02-21T09:43:00.548Z,81.32
2023-02-21T09:45:38.075Z,81.47
2023-02-21T09:48:11.436Z,81.72
2023-02-21T09:51:08.903Z,81.81
2023-02-21T09:53:40.686Z,81.59
2023-02-21T09:56:30.005Z,81.52
2023-02-21T09:58:59.162Z,81.29
2023-02-21T10:01:47.974Z,81.36
2023-02-21T10:04:18.001Z,81.51
2023-02-21T10:06:57.997Z,81.55
2023-02-21T10:09:41.970Z,81.82
2023-02-21T10:12:24.840Z,81.69
2023-02-21T10:15:16.450Z,81.89
2023-02-21T10:17:57.990Z,81.45
2023-02-21T10:20:35.948Z,81.03
2023-02-21T10:23:06.351Z,80.93
2023-02-21T10:25:37.044Z,80.38
2023-02-21T10:28:04.193Z,80.05
2023-02-21T10:30:40.451Z,79.87
2023-02-21T10:33:08.695Z,79.73
2023-02-21T10:35:39.600Z,80.10
2023-02-21T10:38:17.643Z,80.88
2023-02-21T10:40:45.832Z,80.70
2023-02-21T10:43:32.756Z,80.25
2023-02-21T10:46:10.666Z,79.98
2023-02-21T10:48:41.713Z,79.97
2023-02-21T10:51:28.450Z,79.09
2023-02-21T10:54:23.150Z,78.94
2023-02-21T10:59:37.317Z,78.07
2023-02-21T11:02:33.191Z,77.83
2023-02-21T11:05:29.932Z,77.79
2023-02-21T11:08:03.397Z,77.56
2023-02-21T11:10:34.707Z,77.41
2023-02-21T11:13:04.679Z,77.55
2023-02-21T11:15:32.096Z,77.55
2023-02-21T11:18:12.473Z,77.56
2023-02-21T11:20:39.473Z,77.76
2023-02-21T11:23:19.840Z,77.79
2023-02-21T11:25:47.389Z,77.77
2023-02-21T11:28:14.053Z,77.92
2023-02-21T11:30:52.767Z,78.10
2023-02-21T11:33:24.035Z,78.15
2023-02-21T11:35:52.891Z,78.25
2023-02-21T11:38:35.973Z,78.52
2023-02-21T11:41:16.262Z,78.44
2023-02-21T11:43:52.191Z,78.37
2023-02-21T11:46:35.784Z,78.57
2023-02-21T11:49:19.374Z,78.44
2023-02-21T11:51:52.153Z,78.63
2023-02-21T11:54:27.875Z,79.09
2023-02-21T11:57:17.421Z,78.91
2023-02-21T11:59:56.909Z,78.75
2023-02-21T12:02:37.820Z,78.84
2023-02-21T12:05:14.839Z,78.74
2023-02-21T12:07:58.132Z,78.88
2023-02-21T12:10:47.425Z,78.71
2023-02-21T12:13:31.028Z,78.58
2023-02-21T12:16:22.349Z,78.44
2023-02-21T12:19:11.911Z,78.23
2023-02-21T12:21:38.868Z,77.66
2023-02-21T12:24:17.371Z,77.22
2023-02-21T12:26:55.477Z,76.71
2023-02-21T12:29:28.307Z,76.86
2023-02-21T12:32:09.171Z,76.67
2023-02-21T12:35:13.761Z,76.82
2023-02-21T12:37:55.732Z,77.20
2023-02-21T12:40:59.358Z,77.66
2023-02-21T12:43:44.377Z,78.05
2023-02-21T12:46:31.593Z,78.03
2023-02-21T12:49:27.507Z,78.06
2023-02-21T12:52:15.371Z,77.90
2023-02-21T12:55:07.077Z,77.95
2023-02-21T12:58:01.624Z,78.20
2023-02-21T13:00:54.892Z,78.85
2023-02-21T13:03:39.602Z,79.28
2023-02-21T13:06:15.216Z,79.90
2023-02-21T13:08:59.321Z,80.11
2023-02-21T13:11:33.213Z,79.99
2023-02-21T13:14:00.850Z,79.82
2023-02-21T13:16:28.218Z,79.79
2023-02-21T13:19:05.895Z,79.71
2023-02-21T13:21:45.654Z,79.51
2023-02-21T13:24:41.664Z,79.12
2023-02-21T13:27:31.657Z,78.35
2023-02-21T13:30:23.725Z,78.16
2023-02-21T13:32:59.873Z,78.19
2023-02-21T13:35:36.674Z,76.84
2023-02-21T13:38:07.053Z,76.02
2023-02-21T13:40:38.672Z,75.84
2023-02-21T13:43:24.749Z,75.31
2023-02-21T13:45:53.316Z,74.66
2023-02-21T13:48:24.016Z,74.12
2023-02-21T13:50:54.212Z,73.27
2023-02-21T13:53:34.687Z,72.99
2023-02-21T13:56:07.817Z,72.76
2023-02-21T13:58:37.633Z,72.77
2023-02-21T14:01:40.197Z,72.68
2023-02-21T14:04:34.656Z,72.42
2023-02-21T14:07:02.908Z,72.75
2023-02-21T14:09:37.194Z,72.65
2023-02-21T14:12:05.945Z,73.05
2023-02-21T14:14:39.605Z,73.43
2023-02-21T14:17:13.108Z,73.67
2023-02-21T14:19:44.260Z,73.61
2023-02-21T14:22:20.524Z,73.63
2023-02-21T14:24:50.277Z,73.71
2023-02-21T14:27:16.862Z,73.67
2023-02-21T14:29:45.215Z,73.37
2023-02-21T14:32:12.145Z,73.05
2023-02-21T14:34:48.359Z,72.85
2023-02-21T14:37:46.765Z,72.35
2023-02-21T14:40:43.467Z,72.09
2023-02-21T14:43:22.384Z,71.44
2023-02-21T14:46:14.674Z,71.09
2023-02-21T14:48:53.139Z,71.05
2023-02-21T14:51:47.708Z,71.02
2023-02-21T14:54:23.381Z,71.00
2023-02-21T15:00:12.087Z,70.89
2023-02-21T15:02:52.825Z,71.06
2023-02-21T15:05:40.647Z,71.06
2023-02-21T15:08:07.559Z,70.89
2023-02-21T15:10:42.029Z,70.98
2023-02-21T15:13:23.634Z,70.83
2023-02-21T15:16:01.574Z,70.99
2023-02-21T15:18:35.052Z,71.34
2023-02-21T15:21:07.222Z,71.12
2023-02-21T15:23:35.231Z,71.35
2023-02-21T15:26:18.977Z,71.43
2023-02-21T15:28:46.738Z,71.79
2023-02-21T15:31:14.708Z,72.19
2023-02-21T15:33:44.278Z,72.36
2023-02-21T15:36:22.103Z,72.53
2023-02-21T15:39:20.349Z,72.69
2023-02-21T15:41:50.262Z,72.56
2023-02-21T15:44:51.203Z,72.73
2023-02-21T15:47:22.539Z,72.86
2023-02-21T15:50:01.833Z,73.17
2023-02-21T15:52:46.678Z,73.22
2023-02-21T15:55:20.400Z,73.13
2023-02-21T15:58:00.238Z,73.21
2023-02-21T16:00:29.461Z,73.12
2023-02-21T16:03:24.417Z,73.44
2023-02-21T16:05:51.744Z,73.29
2023-02-21T16:08:18.892Z,73.17
2023-02-21T16:10:46.126Z,73.15
2023-02-21T16:13:14.858Z,73.41
2023-02-21T16:15:43.499Z,73.47
2023-02-21T16:18:18.161Z,73.64
2023-02-21T16:20:46.048Z,73.74
2023-02-21T16:23:30.278Z,73.77
2023-02-21T16:26:13.625Z,73.41
2023-02-21T16:28:41.573Z,73.25
2023-02-21T16:31:15.056Z,73.57
2023-02-21T16:33:42.148Z,73.29
2023-02-21T16:36:27.548Z,73.39
2023-02-21T16:38:56.510Z,73.42
2023-02-21T16:41:23.996Z,73.64
2023-02-21T16:43:51.043Z,73.52
2023-02-21T16:46:32.039Z,73.62
2023-02-21T16:48:59.966Z,73.59
2023-02-21T16:51:33.939Z,73.80
2023-02-21T16:54:01.616Z,73.84
2023-02-21T16:56:28.536Z,74.23
2023-02-21T16:58:57.377Z,74.06
2023-02-21T17:01:26.577Z,74.11
2023-02-21T17:03:54.045Z,74.10
2023-02-21T17:06:24.352Z,74.44
2023-02-21T17:08:51.767Z,74.48
2023-02-21T17:11:18.870Z,74.83
2023-02-21T17:13:45.816Z,74.95
2023-02-21T17:16:12.706Z,75.16
2023-02-21T17:18:39.589Z,75.31
2023-02-21T17:21:06.419Z,75.62
2023-02-21T17:23:33.236Z,75.92
2023-02-21T17:26:00.116Z,75.90
2023-02-21T17:28:26.909Z,76.19
2023-02-21T17:30:53.897Z,76.32
2023-02-21T17:33:20.661Z,76.34
2023-02-21T17:35:47.451Z,76.51
2023-02-21T17:38:14.266Z,76.56
2023-02-21T17:40:41.164Z,76.68
2023-02-21T17:43:09.191Z,76.58
2023-02-21T17:45:36.588Z,76.82
2023-02-21T17:48:05.739Z,76.97
2023-02-21T17:50:33.105Z,76.87
2023-02-21T17:53:00.686Z,76.85
2023-02-21T17:55:29.834Z,76.95
2023-02-21T17:57:57.704Z,77.09
2023-02-21T18:00:27.541Z,76.87
2023-02-21T18:02:55.204Z,76.87
2023-02-21T18:05:22.950Z,77.32
2023-02-21T18:07:52.493Z,77.28
2023-02-21T18:10:22.180Z,77.35
2023-02-21T18:12:51.198Z,77.32
2023-02-21T18:15:20.857Z,77.75
2023-02-21T18:17:47.939Z,77.87
2023-02-21T18:20:16.083Z,78.01
2023-02-21T18:22:43.314Z,78.19
2023-02-21T18:25:11.221Z,78.24
2023-02-21T18:27:38.177Z,78.45
2023-02-21T18:30:06.280Z,78.54
2023-02-21T18:32:33.424Z,78.92
2023-02-21T18:35:00.848Z,78.76
2023-02-21T18:37:27.765Z,78.89
2023-02-21T18:39:55.726Z,79.31
2023-02-21T18:42:24.239Z,79.24
2023-02-21T18:44:52.556Z,79.40
2023-02-21T18:47:20.199Z,79.65
2023-02-21T18:49:48.928Z,79.74
2023-02-21T18:52:16.804Z,79.69
2023-02-21T18:54:45.815Z,79.91
2023-02-21T18:57:13.159Z,79.73
2023-02-21T18:59:40.296Z,79.53
2023-02-21T19:02:08.793Z,79.55
2023-02-21T19:04:35.564Z,79.36
2023-02-21T19:07:07.612Z,79.56
2023-02-21T19:09:35.681Z,79.79
2023-02-21T19:12:03.766Z,79.61
2023-02-21T19:14:31.036Z,79.50
2023-02-21T19:16:57.758Z,79.72
2023-02-21T19:19:24.475Z,78.83
2023-02-21T19:21:51.276Z,78.81
2023-02-21T19:24:18.429Z,78.57
2023-02-21T19:26:45.341Z,78.29
2023-02-21T19:29:12.696Z,78.36
2023-02-21T19:31:39.644Z,78.23
2023-02-21T19:34:06.842Z,78.27
2023-02-21T19:36:39.967Z,78.34
2023-02-21T19:39:08.636Z,78.08
2023-02-21T19:41:40.591Z,77.68
2023-02-21T19:44:08.485Z,77.41
2023-02-21T19:46:35.715Z,77.67
2023-02-21T19:49:07.120Z,77.41
2023-02-21T19:51:34.330Z,77.14
2023-02-21T19:54:01.477Z,76.93
2023-02-21T19:56:28.587Z,76.29
2023-02-21T19:58:55.622Z,75.32
2023-02-21T20:01:23.357Z,74.52
2023-02-21T20:03:51.064Z,74.44
2023-02-21T20:06:18.789Z,74.25
2023-02-21T20:08:48.908Z,74.47
2023-02-21T20:11:17.922Z,74.46
2023-02-21T20:13:45.485Z,74.38
2023-02-21T20:16:15.702Z,74.38
2023-02-21T20:18:46.466Z,73.94
2023-02-21T20:21:29.237Z,73.64
2023-02-21T20:23:58.161Z,73.89
2023-02-21T20:26:25.090Z,74.02
2023-02-21T20:28:53.072Z,73.55
2023-02-21T20:31:21.355Z,73.43
2023-02-21T20:33:48.455Z,73.55
2023-02-21T20:36:16.727Z,73.15
2023-02-21T20:38:44.104Z,72.86
2023-02-21T20:41:14.035Z,72.61
2023-02-21T20:43:41.608Z,72.78
2023-02-21T20:46:11.424Z,72.59
2023-02-21T20:48:39.116Z,72.02
2023-02-21T20:51:08.684Z,72.36
2023-02-21T20:53:36.769Z,72.30
2023-02-21T20:56:05.239Z,72.20
2023-02-21T20:58:32.115Z,72.20
2023-02-21T21:00:58.803Z,72.28
2023-02-21T21:03:29.550Z,72.33
2023-02-21T21:05:56.799Z,72.53
2023-02-21T21:08:23.644Z,72.81
2023-02-21T21:10:51.210Z,72.90
2023-02-21T21:13:17.983Z,72.98
2023-02-21T21:15:44.856Z,73.42
2023-02-21T21:18:12.408Z,73.40
2023-02-21T21:20:39.174Z,73.57
2023-02-21T21:23:07.239Z,73.65
2023-02-21T21:25:34.802Z,73.63
2023-02-21T21:28:02.480Z,73.48
2023-02-21T21:30:30.719Z,73.50
2023-02-21T21:32:58.196Z,73.44
2023-02-21T21:35:30.169Z,73.50
2023-02-21T21:37:58.836Z,73.41
2023-02-21T21:40:28.964Z,73.47
2023-02-21T21:42:56.159Z,73.26
2023-02-21T21:45:26.340Z,73.55
2023-02-21T21:47:56.500Z,73.55
2023-02-21T21:50:23.274Z,73.49
2023-02-21T21:52:58.925Z,73.71
2023-02-21T21:55:28.788Z,73.52
2023-02-21T21:57:56.388Z,74.09
2023-02-21T22:00:28.774Z,74.04
2023-02-21T22:02:58.237Z,74.20
2023-02-21T22:05:30.763Z,74.08
2023-02-21T22:07:58.387Z,73.93
2023-02-21T22:10:27.003Z,74.27
2023-02-21T22:12:56.859Z,74.32
2023-02-21T22:15:25.093Z,74.23
2023-02-21T22:17:52.729Z,74.11
2023-02-21T22:20:28.504Z,74.43
2023-02-21T22:22:59.453Z,74.54
2023-02-21T22:25:28.482Z,74.67
2023-02-21T22:27:55.358Z,74.26
2023-02-21T22:30:23.012Z,74.85
2023-02-21T22:32:50.144Z,74.58
2023-02-21T22:35:19.695Z,74.33
2023-02-21T22:37:51.076Z,74.84
2023-02-21T22:40:24.325Z,74.64
2023-02-21T22:42:57.230Z,74.75
2023-02-21T22:45:24.620Z,74.46
2023-02-21T22:47:54.016Z,74.70
2023-02-21T22:50:23.148Z,74.53
2023-02-21T22:52:59.789Z,74.88
2023-02-21T22:55:27.698Z,74.53
2023-02-21T22:57:59.202Z,74.59
2023-02-21T23:00:33.425Z,74.32
2023-02-21T23:03:13.333Z,74.91
2023-02-21T23:05:45.991Z,74.69
2023-02-21T23:08:15.998Z,74.37
2023-02-21T23:10:43.679Z,74.45
2023-02-21T23:13:18.487Z,74.57
2023-02-21T23:15:46.189Z,74.43
2023-02-21T23:18:20.903Z,74.40
2023-02-21T23:20:56.949Z,74.10
2023-02-21T23:23:26.465Z,74.17
2023-02-21T23:25:56.605Z,73.96
2023-02-21T23:28:23.335Z,74.28
2023-02-21T23:30:50.434Z,74.02
2023-02-21T23:33:23.119Z,74.63
2023-02-21T23:35:51.807Z,74.22
2023-02-21T23:38:22.522Z,74.33
2023-02-21T23:40:56.336Z,74.56
2023-02-21T23:43:30.931Z,74.16
2023-02-21T23:45:59.855Z,74.38
2023-02-21T23:48:26.839Z,74.32
2023-02-21T23:50:58.167Z,74.28
2023-02-21T23:53:28.290Z,74.39
2023-02-21T23:55:57.917Z,74.26
2023-02-21T23:58:28.008Z,74.43
